ACM001 YWYY-YSRN

Flight info

Callsign ACM001
Flight time 0h 57m
Altitude 3000
Route SOUTHROAD YBFR
Aircraft C182/L-SDE3/C

Departure

Time 2026-05-05 19:24
Airport Wynyard Airport (YWYY)

Arrival

Time 2026-05-05 20:22
Airport Strahan Airport (YSRN)
Time Latitude Longitude Altitude Speed Heading
2026-05-05 19:08 -40.99377 145.72715 65 ft 0 kts 90°
2026-05-05 19:13 -40.99375 145.72719 65 ft 2 kts 18°
2026-05-05 19:14 -40.99373 145.72712 66 ft 1 kts 251°
2026-05-05 19:14 -40.99376 145.72700 63 ft 0 kts 249°
2026-05-05 19:17 -40.99386 145.72683 64 ft 4 kts 217°
2026-05-05 19:18 -40.99419 145.72671 65 ft 4 kts 184°
2026-05-05 19:18 -40.99439 145.72669 63 ft 1 kts 184°
2026-05-05 19:18 -40.99446 145.72668 61 ft 5 kts 185°
2026-05-05 19:18 -40.99477 145.72664 66 ft 6 kts 180°
2026-05-05 19:19 -40.99501 145.72704 64 ft 8 kts 92°
2026-05-05 19:19 -40.99504 145.72768 62 ft 6 kts 94°
2026-05-05 19:19 -40.99504 145.72772 62 ft 0 kts 93°
2026-05-05 19:20 -40.99504 145.72776 62 ft 2 kts 92°
2026-05-05 19:20 -40.99506 145.72830 60 ft 8 kts 93°
2026-05-05 19:21 -40.99506 145.72873 58 ft 0 kts 91°
2026-05-05 19:21 -40.99506 145.72874 58 ft 0 kts 91°
2026-05-05 19:21 -40.99509 145.72901 57 ft 6 kts 104°
2026-05-05 19:21 -40.99523 145.72926 56 ft 0 kts 146°
2026-05-05 19:22 -40.99524 145.72927 56 ft 1 kts 146°
2026-05-05 19:22 -40.99553 145.72946 56 ft 6 kts 164°
2026-05-05 19:22 -40.99579 145.72938 57 ft 2 kts 225°
2026-05-05 19:23 -40.99580 145.72936 57 ft 0 kts 232°
2026-05-05 19:23 -40.99627 145.72807 64 ft 38 kts 245°
2026-05-05 19:23 -40.99791 145.72362 137 ft 66 kts 243°
2026-05-05 19:24 -41.00048 145.71765 295 ft 80 kts 243°
2026-05-05 19:24 -41.00359 145.71100 524 ft 87 kts 242°
2026-05-05 19:24 -41.00389 145.70277 760 ft 96 kts 275°
2026-05-05 19:24 -41.00362 145.69412 1013 ft 91 kts 274°
2026-05-05 19:25 -41.00375 145.68600 1254 ft 85 kts 264°
2026-05-05 19:25 -41.00885 145.68211 1468 ft 105 kts 180°
2026-05-05 19:25 -41.01361 145.68930 1660 ft 112 kts 94°
2026-05-05 19:25 -41.01008 145.69662 1848 ft 85 kts 358°
2026-05-05 19:26 -41.00691 145.69362 2043 ft 55 kts 279°
2026-05-05 19:26 -41.00527 145.68758 1992 ft 82 kts 287°
2026-05-05 19:26 -41.00328 145.68011 1992 ft 90 kts 287°
2026-05-05 19:26 -41.00112 145.67186 1990 ft 96 kts 286°
2026-05-05 19:27 -40.99889 145.66348 1988 ft 97 kts 289°
2026-05-05 19:27 -40.99456 145.65628 1982 ft 102 kts 305°
2026-05-05 19:27 -40.98982 145.64915 1979 ft 104 kts 307°
2026-05-05 19:27 -40.98378 145.64380 1982 ft 108 kts 325°
2026-05-05 19:28 -40.97895 145.63734 1962 ft 96 kts 285°
2026-05-05 19:28 -40.97741 145.62883 1990 ft 100 kts 284°
2026-05-05 19:28 -40.97579 145.61958 1984 ft 109 kts 283°
2026-05-05 19:28 -40.97450 145.60938 1988 ft 114 kts 274°
2026-05-05 19:29 -40.97517 145.59889 1986 ft 118 kts 264°
2026-05-05 19:29 -40.97657 145.58828 1986 ft 116 kts 263°
2026-05-05 19:29 -40.97786 145.57795 1990 ft 114 kts 264°
2026-05-05 19:29 -40.97939 145.56747 1984 ft 117 kts 264°
2026-05-05 19:30 -40.98097 145.55722 2107 ft 110 kts 263°
2026-05-05 19:30 -40.98239 145.54755 2300 ft 103 kts 264°
2026-05-05 19:30 -40.98377 145.53848 2506 ft 99 kts 263°
2026-05-05 19:30 -40.98512 145.52961 2701 ft 99 kts 264°
2026-05-05 19:31 -40.98652 145.52076 2904 ft 97 kts 263°
2026-05-05 19:31 -40.98788 145.51208 3103 ft 95 kts 263°
2026-05-05 19:31 -40.98915 145.50381 3290 ft 88 kts 263°
2026-05-05 19:31 -40.98991 145.49624 3475 ft 78 kts 276°
2026-05-05 19:32 -40.98977 145.48941 3677 ft 76 kts 269°
2026-05-05 19:32 -40.99006 145.48221 3872 ft 80 kts 270°
2026-05-05 19:32 -40.99027 145.47479 3998 ft 88 kts 270°
2026-05-05 19:32 -40.99053 145.46605 3991 ft 101 kts 271°
2026-05-05 19:33 -40.99082 145.45638 3993 ft 108 kts 270°
2026-05-05 19:33 -40.99107 145.44634 3991 ft 110 kts 270°
2026-05-05 19:33 -40.99129 145.43619 3990 ft 111 kts 270°
2026-05-05 19:33 -40.99150 145.42592 3993 ft 112 kts 271°
2026-05-05 19:34 -40.99176 145.41546 3986 ft 114 kts 271°
2026-05-05 19:34 -40.99214 145.40505 3986 ft 113 kts 270°
2026-05-05 19:34 -40.99253 145.39470 3983 ft 112 kts 270°
2026-05-05 19:35 -40.99326 145.37397 3986 ft 114 kts 270°
2026-05-05 19:35 -40.99303 145.36353 3983 ft 113 kts 276°
2026-05-05 19:35 -40.99255 145.35317 3981 ft 112 kts 275°
2026-05-05 19:35 -40.99203 145.34297 3982 ft 112 kts 275°
2026-05-05 19:36 -40.99142 145.33275 3981 ft 111 kts 275°
2026-05-05 19:36 -40.99080 145.32255 3984 ft 111 kts 276°
2026-05-05 19:36 -40.99022 145.31220 3986 ft 113 kts 275°
2026-05-05 19:36 -40.98963 145.30179 3985 ft 113 kts 276°
2026-05-05 19:37 -40.98906 145.29140 3986 ft 113 kts 275°
2026-05-05 19:37 -40.98851 145.28097 3984 ft 114 kts 275°
2026-05-05 19:37 -40.98797 145.27057 3984 ft 113 kts 275°
2026-05-05 19:37 -40.98745 145.26030 3982 ft 113 kts 275°
2026-05-05 19:38 -40.98691 145.24999 3981 ft 112 kts 275°
2026-05-05 19:38 -40.98640 145.23971 3983 ft 111 kts 276°
2026-05-05 19:38 -40.98593 145.22941 3986 ft 113 kts 275°
2026-05-05 19:38 -40.98549 145.21904 3981 ft 112 kts 275°
2026-05-05 19:39 -40.98508 145.20874 3984 ft 112 kts 275°
2026-05-05 19:39 -40.98464 145.19852 3979 ft 110 kts 275°
2026-05-05 19:39 -40.98409 145.18847 3980 ft 109 kts 275°
2026-05-05 19:39 -40.98357 145.17854 3981 ft 110 kts 275°
2026-05-05 19:40 -40.98350 145.16840 3980 ft 110 kts 271°
2026-05-05 19:40 -40.98366 145.15813 3982 ft 112 kts 271°
2026-05-05 19:40 -40.98384 145.14774 3980 ft 112 kts 271°
2026-05-05 19:40 -40.98731 145.13844 3965 ft 125 kts 231°
2026-05-05 19:41 -40.99445 145.13155 3969 ft 128 kts 228°
2026-05-05 19:41 -41.00167 145.12459 3973 ft 128 kts 229°
2026-05-05 19:41 -41.00880 145.11777 3970 ft 127 kts 228°
2026-05-05 19:41 -41.01583 145.11094 3973 ft 125 kts 229°
2026-05-05 19:42 -41.02291 145.10408 3978 ft 127 kts 228°
2026-05-05 19:42 -41.03008 145.09705 3979 ft 129 kts 229°
2026-05-05 19:42 -41.03736 145.08996 3975 ft 129 kts 229°
2026-05-05 19:42 -41.04464 145.08296 3975 ft 129 kts 228°
2026-05-05 19:43 -41.05186 145.07602 3975 ft 128 kts 228°
2026-05-05 19:43 -41.05898 145.06913 3976 ft 129 kts 228°
2026-05-05 19:43 -41.06622 145.06207 3968 ft 129 kts 229°
2026-05-05 19:43 -41.07365 145.05474 3833 ft 136 kts 228°
2026-05-05 19:44 -41.08131 145.04703 3682 ft 139 kts 228°
2026-05-05 19:44 -41.08832 145.04021 3513 ft 113 kts 229°
2026-05-05 19:44 -41.09440 145.03473 3439 ft 99 kts 228°
2026-05-05 19:44 -41.09987 145.03015 3439 ft 88 kts 229°
2026-05-05 19:45 -41.10494 145.02629 3440 ft 81 kts 228°
2026-05-05 19:45 -41.10966 145.02289 3441 ft 73 kts 229°
2026-05-05 19:45 -41.11407 145.01987 3437 ft 71 kts 228°
2026-05-05 19:45 -41.11837 145.01700 3432 ft 66 kts 228°
2026-05-05 19:46 -41.12218 145.01445 3429 ft 53 kts 246°
2026-05-05 19:46 -41.12097 145.01030 3523 ft 63 kts 308°
2026-05-05 19:46 -41.11495 145.01125 3485 ft 128 kts 20°
2026-05-05 19:46 -41.11012 145.02304 3457 ft 164 kts 79°
2026-05-05 19:47 -41.11361 145.03741 3451 ft 167 kts 135°
2026-05-05 19:47 -41.12323 145.04396 3440 ft 150 kts 181°
2026-05-05 19:47 -41.13348 145.04600 3457 ft 150 kts 182°
2026-05-05 19:47 -41.14308 145.04475 3437 ft 129 kts 223°
2026-05-05 19:48 -41.14972 145.03748 3447 ft 125 kts 232°
2026-05-05 19:48 -41.15635 145.02985 3446 ft 127 kts 232°
2026-05-05 19:48 -41.16417 145.02310 3315 ft 143 kts 215°
2026-05-05 19:48 -41.17309 145.01737 3182 ft 135 kts 221°
2026-05-05 19:49 -41.18073 145.01199 3002 ft 117 kts 221°
2026-05-05 19:49 -41.18463 145.00774 2841 ft 104 kts 242°
2026-05-05 19:49 -41.19027 144.99786 2561 ft 101 kts 244°
2026-05-05 19:49 -41.19473 144.99056 2353 ft 100 kts 242°
2026-05-05 19:50 -41.19515 144.98143 2130 ft 115 kts 296°
2026-05-05 19:50 -41.18790 144.97548 2000 ft 130 kts 334°
2026-05-05 19:50 -41.17870 144.97717 1993 ft 150 kts 21°
2026-05-05 19:50 -41.17291 144.98937 1985 ft 168 kts 75°
2026-05-05 19:51 -41.17550 145.00394 1988 ft 166 kts 128°
2026-05-05 19:51 -41.18479 145.01112 1993 ft 147 kts 184°
2026-05-05 19:51 -41.19317 145.00695 1998 ft 124 kts 233°
2026-05-05 19:51 -41.19899 144.99905 1996 ft 116 kts 234°
2026-05-05 19:52 -41.20463 144.99163 1996 ft 114 kts 236°
2026-05-05 19:52 -41.21024 144.98434 1998 ft 109 kts 235°
2026-05-05 19:52 -41.21487 144.97709 1996 ft 99 kts 243°
2026-05-05 19:52 -41.21859 144.96986 1978 ft 93 kts 249°
2026-05-05 19:53 -41.22227 144.96255 1817 ft 95 kts 248°
2026-05-05 19:53 -41.22548 144.95533 1634 ft 89 kts 254°
2026-05-05 19:53 -41.22837 144.94786 1514 ft 89 kts 252°
2026-05-05 19:53 -41.23132 144.94055 1539 ft 89 kts 249°
2026-05-05 19:54 -41.23444 144.93399 1536 ft 79 kts 248°
2026-05-05 19:54 -41.23713 144.92823 1521 ft 69 kts 246°
2026-05-05 19:54 -41.24010 144.92311 1448 ft 71 kts 242°
2026-05-05 19:54 -41.24332 144.91781 1402 ft 75 kts 242°
2026-05-05 19:55 -41.24650 144.91235 1380 ft 72 kts 245°
2026-05-05 19:55 -41.24920 144.90668 1314 ft 74 kts 248°
2026-05-05 19:55 -41.25189 144.90077 1151 ft 77 kts 247°
2026-05-05 19:55 -41.25471 144.89489 1019 ft 74 kts 246°
2026-05-05 19:56 -41.25757 144.88905 917 ft 77 kts 242°
2026-05-05 19:56 -41.26058 144.88302 994 ft 72 kts 238°
2026-05-05 19:56 -41.26460 144.87900 1224 ft 84 kts 206°
2026-05-05 19:56 -41.27049 144.87795 1491 ft 91 kts 200°
2026-05-05 19:57 -41.27735 144.87675 1724 ft 109 kts 200°
2026-05-05 19:57 -41.28254 144.87621 1935 ft 108 kts 198°
2026-05-05 19:57 -41.29407 144.87555 1886 ft 149 kts 182°
2026-05-05 19:57 -41.30471 144.87828 1773 ft 159 kts 176°
2026-05-05 19:58 -41.31564 144.88213 1723 ft 163 kts 172°
2026-05-05 19:58 -41.32618 144.88586 1924 ft 151 kts 172°
2026-05-05 19:58 -41.33599 144.88961 2145 ft 143 kts 173°
2026-05-05 19:58 -41.34535 144.89359 2372 ft 139 kts 172°
2026-05-05 19:59 -41.35435 144.89735 2592 ft 136 kts 173°
2026-05-05 19:59 -41.36332 144.90133 2815 ft 134 kts 172°
2026-05-05 19:59 -41.37212 144.90531 2981 ft 138 kts 172°
2026-05-05 19:59 -41.38177 144.90942 2960 ft 151 kts 173°
2026-05-05 20:00 -41.38855 144.91221 2962 ft 156 kts 173°
2026-05-05 20:00 -41.39906 144.91655 2962 ft 160 kts 172°
2026-05-05 20:00 -41.41346 144.92240 2972 ft 162 kts 173°
2026-05-05 20:00 -41.42401 144.92686 3093 ft 158 kts 172°
2026-05-05 20:01 -41.43108 144.92979 3080 ft 163 kts 172°
2026-05-05 20:01 -41.44203 144.93419 3082 ft 166 kts 172°
2026-05-05 20:01 -41.45304 144.93860 3080 ft 164 kts 172°
2026-05-05 20:01 -41.46400 144.94304 3079 ft 165 kts 173°
2026-05-05 20:02 -41.47506 144.94763 3077 ft 168 kts 173°
2026-05-05 20:02 -41.48614 144.95225 3071 ft 165 kts 172°
2026-05-05 20:02 -41.49702 144.95669 3076 ft 162 kts 172°
2026-05-05 20:02 -41.50778 144.96110 3071 ft 161 kts 173°
2026-05-05 20:03 -41.51824 144.96559 3068 ft 156 kts 172°
2026-05-05 20:03 -41.52843 144.96995 3069 ft 156 kts 172°
2026-05-05 20:03 -41.53880 144.97430 3073 ft 156 kts 173°
2026-05-05 20:03 -41.54917 144.97870 3069 ft 156 kts 172°
2026-05-05 20:04 -41.55966 144.98314 3070 ft 159 kts 172°
2026-05-05 20:04 -41.57024 144.98756 3069 ft 159 kts 172°
2026-05-05 20:04 -41.58087 144.99194 3074 ft 159 kts 172°
2026-05-05 20:04 -41.59142 144.99628 3079 ft 162 kts 172°
2026-05-05 20:05 -41.60218 145.00067 3077 ft 162 kts 172°
2026-05-05 20:05 -41.61296 145.00503 3074 ft 161 kts 173°
2026-05-05 20:05 -41.62370 145.00944 3079 ft 162 kts 172°
2026-05-05 20:05 -41.63457 145.01386 3070 ft 163 kts 173°
2026-05-05 20:06 -41.64536 145.01827 3067 ft 162 kts 173°
2026-05-05 20:06 -41.65602 145.02261 3067 ft 162 kts 172°
2026-05-05 20:06 -41.66690 145.02703 3070 ft 164 kts 173°
2026-05-05 20:06 -41.67780 145.03144 3064 ft 161 kts 172°
2026-05-05 20:07 -41.68858 145.03563 3069 ft 163 kts 173°
2026-05-05 20:07 -41.69936 145.03985 3067 ft 163 kts 173°
2026-05-05 20:07 -41.71029 145.04427 3067 ft 166 kts 173°
2026-05-05 20:07 -41.72143 145.04879 3066 ft 166 kts 172°
2026-05-05 20:08 -41.73245 145.05307 3065 ft 164 kts 173°
2026-05-05 20:08 -41.74341 145.05731 3063 ft 164 kts 173°
2026-05-05 20:08 -41.75434 145.05941 3055 ft 156 kts 189°
2026-05-05 20:08 -41.76511 145.06054 3055 ft 158 kts 185°
2026-05-05 20:09 -41.77613 145.06193 3059 ft 159 kts 185°
2026-05-05 20:09 -41.78723 145.06326 3054 ft 159 kts 186°
2026-05-05 20:09 -41.79818 145.06461 2986 ft 161 kts 186°
2026-05-05 20:09 -41.80978 145.06605 2710 ft 172 kts 185°
2026-05-05 20:10 -41.82174 145.06735 2437 ft 175 kts 185°
2026-05-05 20:10 -41.83386 145.06879 2163 ft 174 kts 185°
2026-05-05 20:10 -41.84601 145.07057 1914 ft 177 kts 177°
2026-05-05 20:10 -41.85765 145.07548 1944 ft 175 kts 162°
2026-05-05 20:11 -41.86810 145.08387 1943 ft 175 kts 147°
2026-05-05 20:11 -41.87719 145.09435 1941 ft 173 kts 142°
2026-05-05 20:11 -41.88608 145.10533 1947 ft 174 kts 138°
2026-05-05 20:11 -41.89464 145.11691 1939 ft 175 kts 136°
2026-05-05 20:12 -41.90322 145.12852 1947 ft 175 kts 137°
2026-05-05 20:12 -41.91183 145.14025 1945 ft 176 kts 136°
2026-05-05 20:12 -41.92041 145.15198 1941 ft 175 kts 137°
2026-05-05 20:12 -41.92896 145.16376 1948 ft 175 kts 136°
2026-05-05 20:13 -41.93736 145.17531 1948 ft 174 kts 136°
2026-05-05 20:13 -41.94646 145.18610 1841 ft 178 kts 148°
2026-05-05 20:13 -41.95708 145.19540 1551 ft 183 kts 153°
2026-05-05 20:13 -41.96838 145.20348 1240 ft 185 kts 156°
2026-05-05 20:14 -41.97978 145.21149 928 ft 182 kts 155°
2026-05-05 20:14 -41.99046 145.21882 1007 ft 167 kts 156°
2026-05-05 20:14 -42.00116 145.22463 1011 ft 162 kts 165°
2026-05-05 20:14 -42.01125 145.22954 1009 ft 141 kts 164°
2026-05-05 20:15 -42.01991 145.23389 1008 ft 128 kts 165°
2026-05-05 20:15 -42.02804 145.23794 1011 ft 121 kts 165°
2026-05-05 20:15 -42.03583 145.24176 1008 ft 117 kts 165°
2026-05-05 20:15 -42.04327 145.24570 1002 ft 111 kts 167°
2026-05-05 20:16 -42.05038 145.24842 1002 ft 105 kts 171°
2026-05-05 20:16 -42.05738 145.25035 1004 ft 101 kts 176°
2026-05-05 20:16 -42.06419 145.25236 1006 ft 99 kts 176°
2026-05-05 20:16 -42.07098 145.25424 1011 ft 100 kts 177°
2026-05-05 20:17 -42.07780 145.25612 1007 ft 100 kts 177°
2026-05-05 20:17 -42.08448 145.25853 1004 ft 101 kts 172°
2026-05-05 20:17 -42.09147 145.26105 1017 ft 108 kts 173°
2026-05-05 20:17 -42.09904 145.26366 1024 ft 115 kts 174°
2026-05-05 20:18 -42.10695 145.26585 1024 ft 117 kts 175°
2026-05-05 20:18 -42.11516 145.26799 1022 ft 120 kts 178°
2026-05-05 20:18 -42.12328 145.26948 1022 ft 117 kts 183°
2026-05-05 20:18 -42.13126 145.26905 1017 ft 115 kts 194°
2026-05-05 20:19 -42.13936 145.26872 1018 ft 116 kts 192°
2026-05-05 20:19 -42.14748 145.26825 1015 ft 117 kts 193°
2026-05-05 20:19 -42.15554 145.26799 1012 ft 115 kts 191°
2026-05-05 20:19 -42.16353 145.26761 1015 ft 116 kts 193°
2026-05-05 20:20 -42.17161 145.26752 1004 ft 115 kts 191°
2026-05-05 20:20 -42.17933 145.26885 968 ft 117 kts 158°
2026-05-05 20:20 -42.18384 145.27719 994 ft 105 kts 108°
2026-05-05 20:20 -42.18272 145.28494 971 ft 71 kts 18°
2026-05-05 20:21 -42.17800 145.28639 707 ft 76 kts 350°
2026-05-05 20:21 -42.17248 145.28629 412 ft 81 kts 354°
2026-05-05 20:21 -42.16703 145.28703 235 ft 74 kts
2026-05-05 20:21 -42.16255 145.28815 129 ft 59 kts
2026-05-05 20:22 -42.15902 145.28902 69 ft 34 kts
2026-05-05 20:22 -42.15701 145.28962 65 ft 27 kts 12°
2026-05-05 20:22 -42.15537 145.29005 69 ft 20 kts 10°
2026-05-05 20:22 -42.15417 145.29037 71 ft 16 kts 12°
2026-05-05 20:23 -42.15302 145.29067 70 ft 11 kts
2026-05-05 20:23 -42.15241 145.29090 70 ft 7 kts 32°
2026-05-05 20:23 -42.15221 145.29136 74 ft 5 kts 91°
2026-05-05 20:23 -42.15226 145.29190 75 ft 6 kts 90°
2026-05-05 20:24 -42.15228 145.29233 77 ft 4 kts 121°
2026-05-05 20:24 -42.15237 145.29240 72 ft 0 kts 172°